createdAt,value
2018-01-17T00:00:34.031Z,3.40
2018-01-17T00:03:02.341Z,3.40
2018-01-17T00:05:30.319Z,3.40
2018-01-17T00:07:57.898Z,3.40
2018-01-17T00:10:25.420Z,3.40
2018-01-17T00:12:53.204Z,3.40
2018-01-17T00:15:20.734Z,3.40
2018-01-17T00:17:48.336Z,3.40
2018-01-17T00:20:15.831Z,3.40
2018-01-17T00:22:44.144Z,3.40
2018-01-17T00:25:11.700Z,3.40
2018-01-17T00:27:39.249Z,3.30
2018-01-17T00:30:06.777Z,3.30
2018-01-17T00:32:35.096Z,3.30
2018-01-17T00:35:02.625Z,3.30
2018-01-17T00:37:30.920Z,3.30
2018-01-17T00:39:58.469Z,3.30
2018-01-17T00:42:25.994Z,3.30
2018-01-17T00:44:53.535Z,3.40
2018-01-17T00:47:21.051Z,3.40
2018-01-17T00:49:48.577Z,3.40
2018-01-17T00:52:16.103Z,3.40
2018-01-17T00:54:43.633Z,3.40
2018-01-17T00:57:11.205Z,3.40
2018-01-17T00:59:38.728Z,3.40
2018-01-17T01:02:07.021Z,3.50
2018-01-17T01:04:34.572Z,3.50
2018-01-17T01:07:02.373Z,3.50
2018-01-17T01:09:29.921Z,3.50
2018-01-17T01:11:57.452Z,3.50
2018-01-17T01:14:24.985Z,3.50
2018-01-17T01:16:53.310Z,3.50
2018-01-17T01:19:20.822Z,3.50
2018-01-17T01:21:48.358Z,3.50
2018-01-17T01:24:15.900Z,3.50
2018-01-17T01:26:43.525Z,3.50
2018-01-17T01:29:11.060Z,3.50
2018-01-17T01:31:39.352Z,3.50
2018-01-17T01:34:07.650Z,3.50
2018-01-17T01:36:35.176Z,3.50
2018-01-17T01:39:03.496Z,3.40
2018-01-17T01:41:31.032Z,3.40
2018-01-17T01:43:58.561Z,3.50
2018-01-17T01:46:26.896Z,3.40
2018-01-17T01:49:01.169Z,3.40
2018-01-17T01:51:29.482Z,3.40
2018-01-17T01:53:56.995Z,3.40
2018-01-17T01:56:25.731Z,3.40
2018-01-17T01:58:53.283Z,3.40
2018-01-17T02:01:20.802Z,3.40
2018-01-17T02:03:49.110Z,3.40
2018-01-17T02:06:16.626Z,3.40
2018-01-17T02:08:44.144Z,3.40
2018-01-17T02:11:11.689Z,3.50
2018-01-17T02:13:39.206Z,3.50
2018-01-17T02:16:07.526Z,3.50
2018-01-17T02:18:35.068Z,3.50
2018-01-17T02:21:02.602Z,3.50
2018-01-17T02:23:30.899Z,3.50
2018-01-17T02:25:59.226Z,3.50
2018-01-17T02:28:27.894Z,3.50
2018-01-17T02:30:55.420Z,3.40
2018-01-17T02:33:22.954Z,3.50
2018-01-17T02:35:50.483Z,3.60
2018-01-17T02:38:18.004Z,3.60
2018-01-17T02:40:45.559Z,3.60
2018-01-17T02:43:13.085Z,3.60
2018-01-17T02:45:40.622Z,3.60
2018-01-17T02:48:08.152Z,3.60
2018-01-17T02:50:35.907Z,3.70
2018-01-17T02:53:03.800Z,3.70
2018-01-17T02:55:31.329Z,3.70
2018-01-17T02:57:58.857Z,3.70
2018-01-17T03:00:27.165Z,3.80
2018-01-17T03:02:54.683Z,3.70
2018-01-17T03:05:22.223Z,3.80
2018-01-17T03:07:49.739Z,3.80
2018-01-17T03:10:17.261Z,3.80
2018-01-17T03:12:45.611Z,3.80
2018-01-17T03:15:13.146Z,3.80
2018-01-17T03:17:40.696Z,3.80
2018-01-17T03:20:08.227Z,3.80
2018-01-17T03:22:36.525Z,3.80
2018-01-17T03:25:04.055Z,3.80
2018-01-17T03:27:32.365Z,3.90
2018-01-17T03:29:59.917Z,3.90
2018-01-17T03:32:27.435Z,3.90
2018-01-17T03:34:54.965Z,3.90
2018-01-17T03:37:22.499Z,3.90
2018-01-17T03:39:50.015Z,4.00
2018-01-17T03:42:17.565Z,4.00
2018-01-17T03:44:45.897Z,3.80
2018-01-17T03:47:13.424Z,3.90
2018-01-17T03:49:41.719Z,3.80
2018-01-17T03:52:09.252Z,3.80
2018-01-17T03:54:37.565Z,3.80
2018-01-17T03:57:05.348Z,3.70
2018-01-17T03:59:32.863Z,3.70
2018-01-17T04:02:01.164Z,3.70
2018-01-17T04:04:28.722Z,3.70
2018-01-17T04:06:56.277Z,3.70
2018-01-17T04:09:23.800Z,3.70
2018-01-17T04:11:52.093Z,3.70
2018-01-17T04:14:20.719Z,3.70
2018-01-17T04:16:48.240Z,3.70
2018-01-17T04:19:16.543Z,3.70
2018-01-17T04:21:44.096Z,3.70
2018-01-17T04:24:11.633Z,3.70
2018-01-17T04:26:39.182Z,3.70
2018-01-17T04:29:07.474Z,3.80
2018-01-17T04:31:35.023Z,3.70
2018-01-17T04:34:03.318Z,2.60
2018-01-17T04:36:30.865Z,2.60
2018-01-17T04:38:58.421Z,2.00
2018-01-17T04:41:25.961Z,1.60
2018-01-17T04:43:54.268Z,1.50
2018-01-17T04:46:21.792Z,1.50
2018-01-17T04:48:50.096Z,1.40
2018-01-17T04:51:17.631Z,1.40
2018-01-17T04:53:45.933Z,1.30
2018-01-17T04:56:13.512Z,1.30
2018-01-17T04:58:41.041Z,1.40
2018-01-17T05:01:09.569Z,1.40
2018-01-17T05:03:37.107Z,1.40
2018-01-17T05:06:04.641Z,1.40
2018-01-17T05:08:32.197Z,1.40
2018-01-17T05:10:59.812Z,1.40
2018-01-17T05:13:27.337Z,1.40
2018-01-17T05:15:54.888Z,1.50
2018-01-17T05:18:22.421Z,1.50
2018-01-17T05:20:50.741Z,1.50
2018-01-17T05:23:18.515Z,1.50
2018-01-17T05:25:46.053Z,1.50
2018-01-17T05:28:13.608Z,1.50
2018-01-17T05:30:41.131Z,1.50
2018-01-17T05:33:08.739Z,1.60
2018-01-17T05:35:36.316Z,1.50
2018-01-17T05:38:03.855Z,1.60
2018-01-17T05:40:31.405Z,1.60
2018-01-17T05:42:58.948Z,1.60
2018-01-17T05:45:26.569Z,1.70
2018-01-17T05:47:54.225Z,1.70
2018-01-17T05:50:21.763Z,1.70
2018-01-17T05:52:49.316Z,1.80
2018-01-17T05:55:16.848Z,1.80
2018-01-17T05:57:44.409Z,1.80
2018-01-17T06:00:12.715Z,1.90
2018-01-17T06:02:41.299Z,1.90
2018-01-17T06:05:09.763Z,1.90
2018-01-17T06:07:37.745Z,1.90
2018-01-17T06:10:06.118Z,2.00
2018-01-17T06:12:33.630Z,2.00
2018-01-17T06:15:01.146Z,2.00
2018-01-17T06:17:28.911Z,2.00
2018-01-17T06:19:56.434Z,2.00
2018-01-17T06:22:23.976Z,2.00
2018-01-17T06:24:52.275Z,2.00
2018-01-17T06:27:19.790Z,2.00
2018-01-17T06:29:47.319Z,2.00
2018-01-17T06:32:14.875Z,2.00
2018-01-17T06:34:42.403Z,2.00
2018-01-17T06:37:09.937Z,2.00
2018-01-17T06:39:38.063Z,2.00
2018-01-17T06:42:05.596Z,2.00
2018-01-17T06:44:33.125Z,2.00
2018-01-17T06:47:01.451Z,2.10
2018-01-17T06:49:28.974Z,2.10
2018-01-17T06:51:57.273Z,2.20
2018-01-17T06:54:24.822Z,2.10
2018-01-17T06:56:52.361Z,2.20
2018-01-17T06:59:20.683Z,2.20
2018-01-17T07:01:48.215Z,2.20
2018-01-17T07:04:15.735Z,2.20
2018-01-17T07:06:43.269Z,2.20
2018-01-17T07:09:10.803Z,2.20
2018-01-17T07:11:38.341Z,2.20
2018-01-17T07:14:06.633Z,2.20
2018-01-17T07:16:34.163Z,2.20
2018-01-17T07:19:02.486Z,2.10
2018-01-17T07:21:30.038Z,2.10
2018-01-17T07:23:57.563Z,2.10
2018-01-17T07:26:25.843Z,2.10
2018-01-17T07:28:53.405Z,2.10
2018-01-17T07:31:20.927Z,2.00
2018-01-17T07:33:48.475Z,2.00
2018-01-17T07:36:16.017Z,2.00
2018-01-17T07:38:43.543Z,2.00
2018-01-17T07:41:11.097Z,2.00
2018-01-17T07:43:39.397Z,2.10
2018-01-17T07:46:06.961Z,2.10
2018-01-17T07:48:34.483Z,2.10
2018-01-17T07:51:02.902Z,1.90
2018-01-17T07:53:30.448Z,1.90
2018-01-17T07:55:57.967Z,1.90
2018-01-17T07:58:26.297Z,1.80
2018-01-17T08:00:53.839Z,1.80
2018-01-17T08:03:21.411Z,1.80
2018-01-17T08:05:48.969Z,1.70
2018-01-17T08:08:16.501Z,1.70
2018-01-17T08:10:44.047Z,1.70
2018-01-17T08:13:12.346Z,1.70
2018-01-17T08:15:39.872Z,1.70
2018-01-17T08:18:08.201Z,1.80
2018-01-17T08:20:35.730Z,1.80
2018-01-17T08:23:03.313Z,1.80
2018-01-17T08:25:30.889Z,1.80
2018-01-17T08:27:58.420Z,1.90
2018-01-17T08:30:25.961Z,2.00
2018-01-17T08:32:54.259Z,2.30
2018-01-17T08:35:21.816Z,2.30
2018-01-17T08:37:49.339Z,2.30
2018-01-17T08:40:17.623Z,2.30
2018-01-17T08:42:45.937Z,2.30
2018-01-17T08:45:13.825Z,2.40
2018-01-17T08:47:41.373Z,2.50
2018-01-17T08:50:08.892Z,2.60
2018-01-17T08:52:37.185Z,3.20
2018-01-17T08:55:04.716Z,3.20
2018-01-17T08:57:33.004Z,3.60
2018-01-17T09:00:01.312Z,3.70
2018-01-17T09:02:28.841Z,3.70
2018-01-17T09:04:57.119Z,4.00
2018-01-17T09:07:24.665Z,4.00
2018-01-17T09:09:52.983Z,3.50
2018-01-17T09:12:20.533Z,3.50
2018-01-17T09:14:48.047Z,3.50
2018-01-17T09:17:15.577Z,3.60
2018-01-17T09:19:43.143Z,3.70
2018-01-17T09:22:10.656Z,3.70
2018-01-17T09:24:38.205Z,3.70
2018-01-17T09:27:06.497Z,3.40
2018-01-17T09:29:34.011Z,3.40
2018-01-17T09:32:01.543Z,3.40
2018-01-17T09:34:29.073Z,3.30
2018-01-17T09:36:56.603Z,3.20
2018-01-17T09:39:24.922Z,3.00
2018-01-17T09:41:52.460Z,3.00
2018-01-17T09:44:20.009Z,2.90
2018-01-17T09:46:48.301Z,2.90
2018-01-17T09:49:15.856Z,2.80
2018-01-17T09:51:43.390Z,2.80
2018-01-17T09:54:10.960Z,2.80
2018-01-17T09:56:39.256Z,2.70
2018-01-17T09:59:06.785Z,2.70
2018-01-17T10:01:35.092Z,2.80
2018-01-17T10:04:02.877Z,2.80
2018-01-17T10:06:30.405Z,2.80
2018-01-17T10:08:57.950Z,2.80
2018-01-17T10:11:26.249Z,2.80
2018-01-17T10:13:53.787Z,2.80
2018-01-17T10:16:22.080Z,2.80
2018-01-17T10:18:49.619Z,2.80
2018-01-17T10:21:17.929Z,3.00
2018-01-17T10:23:45.500Z,3.00
2018-01-17T10:26:13.022Z,3.10
2018-01-17T10:28:40.554Z,3.20
2018-01-17T10:31:08.067Z,3.50
2018-01-17T10:33:35.605Z,3.80
2018-01-17T10:36:03.134Z,4.00
2018-01-17T10:38:31.782Z,4.50
2018-01-17T10:40:59.309Z,4.50
2018-01-17T10:43:26.828Z,4.30
2018-01-17T10:45:54.378Z,4.10
2018-01-17T10:48:21.913Z,4.20
2018-01-17T10:50:49.466Z,4.00
2018-01-17T10:53:17.030Z,3.90
2018-01-17T10:55:44.557Z,3.50
2018-01-17T10:58:12.094Z,3.20
2018-01-17T11:00:46.273Z,3.00
2018-01-17T11:03:13.830Z,3.00
2018-01-17T11:05:41.347Z,2.90
2018-01-17T11:08:08.881Z,3.00
2018-01-17T11:10:37.200Z,2.80
2018-01-17T11:13:04.715Z,2.70
2018-01-17T11:15:33.180Z,2.80
2018-01-17T11:18:00.709Z,2.80
2018-01-17T11:20:28.226Z,2.80
2018-01-17T11:22:55.957Z,2.70
2018-01-17T11:25:25.043Z,2.90
2018-01-17T11:27:52.602Z,2.80
2018-01-17T11:30:20.135Z,3.30
2018-01-17T11:32:47.673Z,3.30
2018-01-17T11:35:15.210Z,3.30
2018-01-17T11:37:43.510Z,3.10
2018-01-17T11:40:11.097Z,3.10
2018-01-17T11:42:38.620Z,3.10
2018-01-17T11:45:06.153Z,3.10
2018-01-17T11:47:34.469Z,3.00
2018-01-17T11:50:01.997Z,3.00
2018-01-17T11:52:30.430Z,3.00
2018-01-17T11:54:57.961Z,3.00
2018-01-17T11:57:25.497Z,2.90
2018-01-17T11:59:53.809Z,2.80
2018-01-17T12:02:21.341Z,2.80
2018-01-17T12:04:48.881Z,2.80
2018-01-17T12:07:17.201Z,2.80
2018-01-17T12:09:44.853Z,2.80
2018-01-17T12:12:12.383Z,2.80
2018-01-17T12:14:40.799Z,2.70
2018-01-17T12:17:08.578Z,2.70
2018-01-17T12:19:36.109Z,2.70
2018-01-17T12:22:03.659Z,2.80
2018-01-17T12:24:31.659Z,2.80
2018-01-17T12:26:59.201Z,2.70
2018-01-17T12:29:26.717Z,2.60
2018-01-17T12:31:54.248Z,2.70
2018-01-17T12:34:21.778Z,2.70
2018-01-17T12:36:50.093Z,2.70
2018-01-17T12:39:18.452Z,3.00
2018-01-17T12:41:45.987Z,3.00
2018-01-17T12:44:13.537Z,3.10
2018-01-17T12:46:41.156Z,3.10
2018-01-17T12:49:08.829Z,3.30
2018-01-17T12:51:36.483Z,3.40
2018-01-17T12:54:04.084Z,3.40
2018-01-17T12:56:31.603Z,3.40
2018-01-17T12:58:59.145Z,3.40
2018-01-17T13:01:26.663Z,3.40
2018-01-17T13:03:54.217Z,3.40
2018-01-17T13:06:22.060Z,3.40
2018-01-17T13:08:49.673Z,3.40
2018-01-17T13:11:17.304Z,3.40
2018-01-17T13:13:44.857Z,3.30
2018-01-17T13:16:12.388Z,3.20
2018-01-17T13:18:40.685Z,3.20
2018-01-17T13:21:08.232Z,3.20
2018-01-17T13:23:36.916Z,3.20
2018-01-17T13:26:06.217Z,3.30
2018-01-17T13:28:35.133Z,3.30
2018-01-17T13:31:04.181Z,3.40
2018-01-17T13:33:31.995Z,3.40
2018-01-17T13:36:01.171Z,3.40
2018-01-17T13:38:29.441Z,3.30
2018-01-17T13:40:58.339Z,3.30
2018-01-17T13:43:26.890Z,3.30
2018-01-17T13:45:55.914Z,3.20
2018-01-17T13:48:25.609Z,3.20
2018-01-17T13:50:54.761Z,3.30
2018-01-17T13:53:23.384Z,3.30
2018-01-17T13:55:51.455Z,3.30
2018-01-17T13:58:20.325Z,3.30
2018-01-17T14:00:48.904Z,3.40
2018-01-17T14:03:16.884Z,3.40
2018-01-17T14:05:47.090Z,3.40
2018-01-17T14:08:15.422Z,3.40
2018-01-17T14:10:43.771Z,3.30
2018-01-17T14:13:11.287Z,3.30
2018-01-17T14:15:38.870Z,3.30
2018-01-17T14:18:06.413Z,3.30
2018-01-17T14:20:33.950Z,3.30
2018-01-17T14:23:01.837Z,3.30
2018-01-17T14:25:29.393Z,3.30
2018-01-17T14:27:57.116Z,3.30
2018-01-17T14:30:24.666Z,3.30
2018-01-17T14:32:52.967Z,3.30
2018-01-17T14:35:20.483Z,3.30
2018-01-17T14:37:48.211Z,3.30
2018-01-17T14:40:15.737Z,3.20
2018-01-17T14:42:43.271Z,3.20
2018-01-17T14:45:11.567Z,3.10
2018-01-17T14:47:39.101Z,3.10
2018-01-17T14:50:07.413Z,3.10
2018-01-17T14:52:35.217Z,3.10
2018-01-17T14:55:03.685Z,3.00
2018-01-17T14:57:31.208Z,3.00
2018-01-17T14:59:58.737Z,3.00
2018-01-17T15:02:26.268Z,3.00
2018-01-17T15:04:54.129Z,3.00
2018-01-17T15:07:21.683Z,3.00
2018-01-17T15:09:49.215Z,2.90
2018-01-17T15:12:16.731Z,2.90
2018-01-17T15:14:44.283Z,3.00
2018-01-17T15:17:11.795Z,3.00
2018-01-17T15:19:39.326Z,3.00
2018-01-17T15:22:07.625Z,3.20
2018-01-17T15:24:35.238Z,3.20
2018-01-17T15:27:02.769Z,3.20
2018-01-17T15:29:30.317Z,3.20
2018-01-17T15:31:57.867Z,3.20
2018-01-17T15:34:25.383Z,3.20
2018-01-17T15:36:53.010Z,3.20
2018-01-17T15:39:21.561Z,3.20
2018-01-17T15:41:49.121Z,3.20
2018-01-17T15:44:16.684Z,3.20
2018-01-17T15:46:44.359Z,3.20
2018-01-17T15:49:11.909Z,3.10
2018-01-17T15:51:39.463Z,3.10
2018-01-17T15:54:07.061Z,2.90
2018-01-17T15:56:34.621Z,2.80
2018-01-17T15:59:02.150Z,2.80
2018-01-17T16:01:29.683Z,2.70
2018-01-17T16:03:57.988Z,2.70
2018-01-17T16:06:25.565Z,2.70
2018-01-17T16:08:53.146Z,2.70
2018-01-17T16:11:20.729Z,2.60
2018-01-17T16:13:49.027Z,2.50
2018-01-17T16:16:16.558Z,2.50
2018-01-17T16:18:44.893Z,2.50
2018-01-17T16:21:13.219Z,2.40
2018-01-17T16:23:41.585Z,2.50
2018-01-17T16:26:09.878Z,2.50
2018-01-17T16:28:38.529Z,2.50
2018-01-17T16:31:06.076Z,2.50
2018-01-17T16:33:33.605Z,2.50
2018-01-17T16:36:01.241Z,2.50
2018-01-17T16:38:28.756Z,2.50
2018-01-17T16:40:56.304Z,2.50
2018-01-17T16:43:24.718Z,2.60
2018-01-17T16:45:52.261Z,2.50
2018-01-17T16:48:19.944Z,2.60
2018-01-17T16:50:48.227Z,2.60
2018-01-17T16:53:16.541Z,2.60
2018-01-17T16:55:44.150Z,2.60
2018-01-17T16:58:11.715Z,2.60
2018-01-17T17:00:40.080Z,2.50
2018-01-17T17:03:08.877Z,2.40
2018-01-17T17:05:37.198Z,2.40
2018-01-17T17:08:05.044Z,2.30
2018-01-17T17:10:32.847Z,2.30
2018-01-17T17:13:00.390Z,2.30
2018-01-17T17:15:27.987Z,2.20
2018-01-17T17:17:56.665Z,2.20
2018-01-17T17:20:24.249Z,2.20
2018-01-17T17:22:52.697Z,2.10
2018-01-17T17:25:20.308Z,2.20
2018-01-17T17:27:48.603Z,2.20
2018-01-17T17:30:16.162Z,2.20
2018-01-17T17:32:43.699Z,2.20
2018-01-17T17:35:12.036Z,2.20
2018-01-17T17:37:39.597Z,2.20
2018-01-17T17:40:07.125Z,2.20
2018-01-17T17:42:34.671Z,2.20
2018-01-17T17:45:02.191Z,2.30
2018-01-17T17:47:30.505Z,2.20
2018-01-17T17:49:58.063Z,2.20
2018-01-17T17:52:26.003Z,2.10
2018-01-17T17:54:54.374Z,1.90
2018-01-17T17:57:22.682Z,1.90
2018-01-17T17:59:50.335Z,1.90
2018-01-17T18:02:17.972Z,1.80
2018-01-17T18:04:46.389Z,1.80
2018-01-17T18:07:13.940Z,1.80
2018-01-17T18:09:41.485Z,1.80
2018-01-17T18:12:09.105Z,1.80
2018-01-17T18:14:36.737Z,1.80
2018-01-17T18:17:04.333Z,1.70
2018-01-17T18:19:32.892Z,1.70
2018-01-17T18:22:00.559Z,1.70
2018-01-17T18:24:28.112Z,1.70
2018-01-17T18:26:55.637Z,1.70
2018-01-17T18:29:23.151Z,1.80
2018-01-17T18:31:50.683Z,1.80
2018-01-17T18:34:18.221Z,1.80
2018-01-17T18:36:46.008Z,1.80
2018-01-17T18:39:13.549Z,1.80
2018-01-17T18:41:41.064Z,1.90
2018-01-17T18:44:08.611Z,1.90
2018-01-17T18:46:36.131Z,2.00
2018-01-17T18:49:03.689Z,1.90
2018-01-17T18:51:31.203Z,2.00
2018-01-17T18:53:59.483Z,2.10
2018-01-17T18:56:27.779Z,2.10
2018-01-17T18:58:55.296Z,2.10
2018-01-17T19:01:22.845Z,2.10
2018-01-17T19:03:50.358Z,2.10
2018-01-17T19:06:18.051Z,2.20
2018-01-17T19:08:45.712Z,2.20
2018-01-17T19:11:13.226Z,2.20
2018-01-17T19:13:40.860Z,2.20
2018-01-17T19:16:09.166Z,2.20
2018-01-17T19:18:36.679Z,2.20
2018-01-17T19:21:04.225Z,2.20
2018-01-17T19:23:31.739Z,2.30
2018-01-17T19:25:59.348Z,2.30
2018-01-17T19:28:26.885Z,2.30
2018-01-17T19:30:54.417Z,2.20
2018-01-17T19:33:21.951Z,2.20
2018-01-17T19:35:50.250Z,2.20
2018-01-17T19:38:17.949Z,2.10
2018-01-17T19:40:45.462Z,2.10
2018-01-17T19:43:13.753Z,2.10
2018-01-17T19:45:41.287Z,2.10
2018-01-17T19:48:09.571Z,2.10
2018-01-17T19:50:37.885Z,2.10
2018-01-17T19:53:05.406Z,2.10
2018-01-17T19:55:33.721Z,2.30
2018-01-17T19:58:01.351Z,2.20
2018-01-17T20:00:29.635Z,2.40
2018-01-17T20:02:57.189Z,2.40
2018-01-17T20:05:24.705Z,2.40
2018-01-17T20:07:52.239Z,2.50
2018-01-17T20:10:19.751Z,2.50
2018-01-17T20:12:48.119Z,2.60
2018-01-17T20:15:16.437Z,2.80
2018-01-17T20:17:43.964Z,2.70
2018-01-17T20:20:12.262Z,2.80
2018-01-17T20:22:45.519Z,2.80
2018-01-17T20:25:13.140Z,2.90
2018-01-17T20:27:40.669Z,3.00
2018-01-17T20:30:08.491Z,3.00
2018-01-17T20:32:36.104Z,3.00
2018-01-17T20:35:03.794Z,3.10
2018-01-17T20:37:31.342Z,3.10
2018-01-17T20:39:58.862Z,3.10
2018-01-17T20:42:27.182Z,3.20
2018-01-17T20:44:54.709Z,3.20
2018-01-17T20:47:22.237Z,3.20
2018-01-17T20:49:50.561Z,3.20
2018-01-17T20:52:18.083Z,3.20
2018-01-17T20:54:46.719Z,3.30
2018-01-17T20:57:14.259Z,3.20
2018-01-17T20:59:41.792Z,3.30
2018-01-17T21:02:10.135Z,3.30
2018-01-17T21:04:37.740Z,3.30
2018-01-17T21:07:05.296Z,3.30
2018-01-17T21:09:32.828Z,3.30
2018-01-17T21:12:00.357Z,3.30
2018-01-17T21:14:27.904Z,3.30
2018-01-17T21:16:55.419Z,3.40
2018-01-17T21:19:23.730Z,3.30
2018-01-17T21:21:51.261Z,3.30
2018-01-17T21:24:18.803Z,3.30
2018-01-17T21:26:47.087Z,3.30
2018-01-17T21:29:15.393Z,3.20
2018-01-17T21:31:42.940Z,3.30
2018-01-17T21:34:10.477Z,3.20
2018-01-17T21:36:38.780Z,3.10
2018-01-17T21:39:06.313Z,3.10
2018-01-17T21:41:34.591Z,3.10
2018-01-17T21:44:08.654Z,3.00
2018-01-17T21:46:36.185Z,3.00
2018-01-17T21:49:03.965Z,2.90
2018-01-17T21:51:31.501Z,2.90
2018-01-17T21:53:59.050Z,2.90
2018-01-17T21:56:26.581Z,2.90
2018-01-17T21:58:54.109Z,2.90
2018-01-17T22:01:21.978Z,2.90
2018-01-17T22:03:49.513Z,2.90
2018-01-17T22:06:17.051Z,3.00
2018-01-17T22:08:44.581Z,3.00
2018-01-17T22:11:12.103Z,3.00
2018-01-17T22:13:39.639Z,3.00
2018-01-17T22:16:07.169Z,3.00
2018-01-17T22:18:35.489Z,3.00
2018-01-17T22:21:03.096Z,3.00
2018-01-17T22:23:30.621Z,3.00
2018-01-17T22:25:58.167Z,3.10
2018-01-17T22:28:25.698Z,3.10
2018-01-17T22:30:53.269Z,3.10
2018-01-17T22:33:20.794Z,3.10
2018-01-17T22:35:49.129Z,3.20
2018-01-17T22:38:16.673Z,3.20
2018-01-17T22:40:44.205Z,3.20
2018-01-17T22:43:12.525Z,3.20
2018-01-17T22:45:40.053Z,3.20
2018-01-17T22:48:07.575Z,3.10
2018-01-17T22:50:35.107Z,3.10
2018-01-17T22:53:02.623Z,3.10
2018-01-17T22:55:30.164Z,3.00
2018-01-17T22:57:58.457Z,3.00
2018-01-17T23:00:25.989Z,3.00
2018-01-17T23:02:53.542Z,3.00
2018-01-17T23:05:21.066Z,2.90
2018-01-17T23:07:48.605Z,2.90
2018-01-17T23:10:16.133Z,2.90
2018-01-17T23:12:44.429Z,2.80
2018-01-17T23:15:12.228Z,2.80
2018-01-17T23:17:39.766Z,2.80
2018-01-17T23:20:07.331Z,2.80
2018-01-17T23:22:34.843Z,2.70
2018-01-17T23:25:03.132Z,2.50
2018-01-17T23:27:31.423Z,2.40
2018-01-17T23:29:58.955Z,2.40
2018-01-17T23:32:27.263Z,2.40
2018-01-17T23:34:54.793Z,2.40
2018-01-17T23:37:23.090Z,2.30
2018-01-17T23:39:50.627Z,2.30
2018-01-17T23:42:18.907Z,2.30
2018-01-17T23:44:47.253Z,2.30
2018-01-17T23:47:14.782Z,2.20
2018-01-17T23:49:42.333Z,2.30
2018-01-17T23:52:09.865Z,2.30
2018-01-17T23:54:38.165Z,2.20
2018-01-17T23:57:05.697Z,2.30
2018-01-17T23:59:33.993Z,2.20
